PMDY METAR and TAF weather

Enter ICAO airport designator
Station Type Date Time Source
PMDY METAR 2024/04/18 06:56 UTC NOAA

PMDY 180656Z AUTO 07016KT 10SM FEW023 OVC049 19/15 A3029 RMK AO2 SLP258 T01940150


Station Type Date Time Source
PMDY Decoded METAR 2024/04/18 06:56 UTC NOAA

Sand Island, Henderson Field Airport, HI, United States (PMDY) 28-13N 177-22W 6M
Apr 18, 2024 - 02:56 AM EDT / 2024.04.18 0656 UTC
Wind: from the ENE (070 degrees) at 18 MPH (16 KT):0
Visibility: 10 mile(s):0
Sky conditions: overcast
Temperature: 66.9 F (19.4 C)
Dew Point: 59.0 F (15.0 C)
Relative Humidity: 75%
Pressure (altimeter): 30.29 in. Hg (1025 hPa)
ob: PMDY 180656Z AUTO 07016KT 10SM FEW023 OVC049 19/15 A3029 RMK AO2 SLP258 T01940150
cycle: 7

Station Type Date Time Source
PMDY TAF 2024/04/18 06:45 UTC NOAA